Time;durP1;ratioP1;P1;durP2;ratioP2;P2;SDS_P1;SDS_P2;PMS_P1;PMS_P2;Temp;Humidity;BMP_temperature;BMP_pressure;BME280_temperature;BME280_humidity;BME280_pressure;Samples;Min_cycle;Max_cycle;Signal;HPM_P1;HPM_P2
2022/07/27 00:01:31;;;;;;;;;1.00;1.00;;;;;20.82;50.29;101323.84;5078063;27;47010;-84
2022/07/27 00:03:56;;;;;;;;;1.00;1.00;;;;;20.81;50.59;101329.19;5095978;27;45301;-85
2022/07/27 00:06:21;;;;;;;;;1.00;1.00;;;;;20.84;50.83;101326.53;5096437;27;45456;-84
2022/07/27 00:08:47;;;;;;;;;1.00;1.00;;;;;20.95;50.91;101348.81;5096527;27;45517;-84
2022/07/27 00:11:12;;;;;;;;;4.25;2.75;;;;;20.84;50.94;101326.53;5077818;27;47247;-85
2022/07/27 00:13:38;;;;;;;;;2.00;2.00;;;;;20.73;51.08;101305.13;5096667;27;45389;-85
2022/07/27 00:16:03;;;;;;;;;1.00;1.00;;;;;20.82;50.94;101326.53;5096679;27;45546;-85
2022/07/27 00:18:29;;;;;;;;;1.25;1.00;;;;;20.84;51.01;101329.22;5095777;27;45561;-85
2022/07/27 00:20:54;;;;;;;;;0.75;0.75;;;;;20.83;51.13;101332.75;5096566;27;45661;-85
2022/07/27 00:23:20;;;;;;;;;1.00;1.00;;;;;20.75;51.17;101321.19;5096370;27;45398;-85
2022/07/27 00:25:45;;;;;;;;;4.00;2.00;;;;;20.74;51.59;101319.38;5096502;27;45334;-85
2022/07/27 00:28:11;;;;;;;;;4.00;2.50;;;;;20.87;51.66;101340.78;5096330;27;45487;-85
2022/07/27 00:30:36;;;;;;;;;1.50;1.50;;;;;20.91;51.91;101348.81;5096034;27;46425;-85
2022/07/27 00:33:02;;;;;;;;;2.25;2.25;;;;;20.74;51.80;101316.69;5096456;27;45587;-85
2022/07/27 00:35:27;;;;;;;;;2.75;2.50;;;;;20.60;51.84;101292.66;5096299;27;45389;-84
2022/07/27 00:37:53;;;;;;;;;2.00;2.00;;;;;20.61;51.70;101302.44;5096506;27;45223;-85
2022/07/27 00:40:18;;;;;;;;;2.00;2.00;;;;;20.73;51.66;101321.16;5096188;27;45571;-85
2022/07/27 00:42:43;;;;;;;;;2.00;2.00;;;;;20.76;52.07;101337.19;5095411;27;45347;-85
2022/07/27 00:45:09;;;;;;;;;1.00;1.00;;;;;20.75;51.99;101332.75;5096198;27;45413;-85
2022/07/27 00:47:38;;;;;;;;;3.00;2.00;;;;;20.73;52.30;101326.50;5095265;27;45370;-85
2022/07/27 00:50:04;;;;;;;;;2.25;2.00;;;;;20.63;52.25;101316.69;5095927;27;45459;-85
2022/07/27 00:52:29;;;;;;;;;2.00;1.75;;;;;20.59;52.81;101313.13;5095990;27;45893;-85
2022/07/27 00:54:55;;;;;;;;;2.00;2.00;;;;;20.65;52.29;101314.03;5081501;27;45481;-84
2022/07/27 00:57:21;;;;;;;;;4.25;3.00;;;;;20.59;52.42;101312.22;5097385;27;45490;-85
2022/07/27 00:59:47;;;;;;;;;3.25;3.00;;;;;20.71;52.29;101343.41;5095080;27;46421;-85
2022/07/27 01:02:12;;;;;;;;;3.00;3.00;;;;;20.51;52.56;101300.63;5095012;27;45323;-85
2022/07/27 01:04:38;;;;;;;;;3.50;3.00;;;;;20.67;53.04;101328.28;5095327;27;45508;-85
2022/07/27 01:07:04;;;;;;;;;3.00;3.00;;;;;20.62;52.96;101320.25;5095450;27;45557;-84
2022/07/27 01:12:17;;;;;;;;;4.75;2.00;;;;;20.61;53.00;101338.06;5095646;27;46045;-84
2022/07/27 01:14:43;;;;;;;;;2.75;2.75;;;;;20.55;52.88;101318.47;5095493;27;45335;-85
2022/07/27 01:17:08;;;;;;;;;3.00;2.75;;;;;20.52;53.43;101316.66;5095704;27;45608;-85
2022/07/27 01:19:34;;;;;;;;;3.25;3.25;;;;;20.44;53.02;101305.00;5094997;27;45503;-85
2022/07/27 01:22:04;;;;;;;;;4.00;3.00;;;;;20.45;53.33;101303.25;5076871;27;45782;-85
2022/07/27 01:24:29;;;;;;;;;3.00;2.75;;;;;20.55;53.36;101322.03;5076942;27;45507;-84
2022/07/27 01:26:55;;;;;;;;;3.00;3.00;;;;;20.43;53.39;101302.34;5076959;27;45539;-84
2022/07/27 01:29:21;;;;;;;;;2.00;2.00;;;;;20.32;53.60;101284.53;5076791;27;47203;-84
2022/07/27 01:31:46;;;;;;;;;4.00;3.25;;;;;20.24;53.32;101272.91;5094306;27;45312;-84
2022/07/27 01:34:11;;;;;;;;;3.00;3.00;;;;;20.48;53.80;101316.63;5095050;27;45568;-84
2022/07/27 01:36:37;;;;;;;;;2.50;2.50;;;;;20.31;53.38;101287.19;5095189;27;45381;-84
2022/07/27 01:39:03;;;;;;;;;3.00;3.00;;;;;20.39;53.80;101301.44;5094793;27;46146;-85
2022/07/27 01:41:28;;;;;;;;;3.00;3.00;;;;;20.33;53.86;101301.44;5095015;27;45449;-85
2022/07/27 01:43:53;;;;;;;;;2.75;2.00;;;;;20.26;54.03;101291.63;5095125;27;45290;-85
2022/07/27 01:46:19;;;;;;;;;2.00;2.00;;;;;20.30;54.22;101307.66;5094951;27;45581;-85
2022/07/27 01:48:44;;;;;;;;;3.75;3.00;;;;;20.16;54.12;101296.03;5094641;27;46324;-85
2022/07/27 01:51:09;;;;;;;;;4.25;3.00;;;;;20.15;54.12;101293.34;5094880;27;45350;-84
2022/07/27 01:53:35;;;;;;;;;2.00;2.00;;;;;20.15;54.55;101298.69;5076399;27;45295;-85
2022/07/27 01:56:00;;;;;;;;;3.50;3.00;;;;;20.05;54.63;101280.00;5094869;27;45412;-84
2022/07/27 01:58:26;;;;;;;;;2.50;2.00;;;;;20.05;54.59;101277.31;5075121;27;47915;-85
2022/07/27 02:00:51;;;;;;;;;3.75;3.75;;;;;19.89;54.64;101246.09;5076271;27;45958;-84
2022/07/27 02:03:17;;;;;;;;;4.00;4.00;;;;;20.07;55.04;101275.53;5075902;27;45747;-83
2022/07/27 02:05:42;;;;;;;;;3.00;3.00;;;;;20.09;54.59;101281.75;5094938;27;45524;-84
2022/07/27 02:08:08;;;;;;;;;3.50;3.50;;;;;20.19;54.80;101305.81;5094403;27;46458;-84
2022/07/27 02:10:35;;;;;;;;;2.00;2.00;;;;;19.96;55.19;101263.94;5094311;27;45336;-84
2022/07/27 02:13:00;;;;;;;;;4.00;4.00;;;;;19.90;55.22;101263.91;5094294;27;45410;-84
2022/07/27 02:15:27;;;;;;;;;3.00;3.00;;;;;20.15;54.99;101298.69;5094350;27;45637;-84
2022/07/27 02:17:53;;;;;;;;;4.00;3.00;;;;;20.02;54.96;101292.41;5093690;27;46162;-84
2022/07/27 02:20:21;;;;;;;;;3.00;3.00;;;;;20.07;55.48;101301.31;5075867;27;45460;-84
2022/07/27 02:22:47;;;;;;;;;4.00;4.00;;;;;20.02;55.47;101306.66;5094367;27;45403;-84
2022/07/27 02:25:14;;;;;;;;;3.00;3.00;;;;;19.87;55.72;101290.56;5094436;27;45249;-84
2022/07/27 02:27:41;;;;;;;;;3.25;3.00;;;;;19.86;55.92;101304.78;5094215;27;46430;-85
2022/07/27 02:30:07;;;;;;;;;4.00;4.00;;;;;19.60;56.15;101275.28;5076300;27;45437;-85
2022/07/27 02:32:33;;;;;;;;;4.00;4.00;;;;;19.76;56.50;101301.19;5094281;27;45429;-85
2022/07/27 02:34:59;;;;;;;;;3.00;3.00;;;;;19.62;56.31;101267.31;5094565;27;45482;-85
2022/07/27 02:37:24;;;;;;;;;3.75;3.00;;;;;19.71;56.56;101286.94;5094115;27;46405;-85
2022/07/27 02:39:49;;;;;;;;;4.00;3.00;;;;;19.73;56.27;101278.91;5094136;27;45390;-85
2022/07/27 02:42:15;;;;;;;;;5.00;5.00;;;;;19.76;56.46;101278.94;5094042;27;45316;-84
2022/07/27 02:44:40;;;;;;;;;3.00;3.00;;;;;19.60;56.35;101240.59;5094247;27;45283;-84
2022/07/27 02:47:06;;;;;;;;;4.00;4.00;;;;;19.73;56.54;101258.47;5075149;27;48135;-84
2022/07/27 02:49:31;;;;;;;;;2.25;2.25;;;;;19.85;56.49;101273.63;5093838;27;45230;-85
2022/07/27 02:51:57;;;;;;;;;3.50;3.25;;;;;19.88;56.65;101275.44;5076093;27;45567;-85
2022/07/27 02:54:24;;;;;;;;;5.00;4.00;;;;;20.02;56.21;101301.31;5093797;27;45276;-85
2022/07/27 02:56:54;;;;;;;;;4.00;4.00;;;;;19.93;56.18;101295.03;5075485;27;47994;-85
2022/07/27 02:59:21;;;;;;;;;4.00;3.50;;;;;19.95;56.57;101286.16;5093972;27;45279;-85
2022/07/27 03:01:47;;;;;;;;;5.50;4.75;;;;;19.94;56.39;101284.34;5094149;27;45319;-84
2022/07/27 03:04:13;;;;;;;;;4.75;4.75;;;;;19.80;55.89;101267.38;5094153;27;45469;-84
2022/07/27 03:06:39;;;;;;;;;3.00;3.00;;;;;19.89;56.24;101280.78;5094922;27;45407;-85
2022/07/27 03:09:04;;;;;;;;;4.00;3.25;;;;;19.96;56.31;101303.94;5093084;27;45276;-85
2022/07/27 03:11:30;;;;;;;;;4.00;4.00;;;;;19.75;56.54;101270.06;5074831;27;45463;-85
2022/07/27 03:13:55;;;;;;;;;4.00;3.25;;;;;19.72;56.72;101262.03;5097773;27;45276;-84
2022/07/27 03:16:21;;;;;;;;;5.75;4.00;;;;;19.81;56.73;101272.75;5074420;27;48119;-84
2022/07/27 03:18:46;;;;;;;;;4.50;4.00;;;;;19.82;56.53;101284.31;5093011;27;45483;-85
2022/07/27 03:21:12;;;;;;;;;3.00;3.00;;;;;19.66;56.55;101258.44;5093795;27;45340;-84
2022/07/27 03:23:38;;;;;;;;;4.25;3.00;;;;;19.81;56.87;101298.53;5075161;27;45261;-84
2022/07/27 03:26:03;;;;;;;;;3.25;3.25;;;;;19.63;57.07;101272.63;5093499;27;46196;-85
2022/07/27 03:28:29;;;;;;;;;2.75;2.75;;;;;19.64;56.56;101285.09;5093865;27;45564;-86
2022/07/27 03:30:54;;;;;;;;;3.75;3.00;;;;;19.54;56.79;101268.09;5093904;27;45365;-86
2022/07/27 03:33:19;;;;;;;;;3.00;3.00;;;;;19.55;56.63;101277.88;5093481;27;45410;-87
2022/07/27 03:35:45;;;;;;;;;4.75;4.50;;;;;19.46;56.81;101261.84;5093603;27;45461;-86
2022/07/27 03:38:10;;;;;;;;;3.00;3.00;;;;;19.39;56.94;101254.69;5093574;27;45429;-83
2022/07/27 03:40:36;;;;;;;;;2.75;2.50;;;;;19.59;57.42;101295.72;5093501;27;45334;-83
2022/07/27 03:43:01;;;;;;;;;2.75;2.00;;;;;19.49;57.14;101277.84;5093304;27;45439;-86
2022/07/27 03:45:26;;;;;;;;;1.00;0.75;;;;;19.47;57.09;101282.28;5074893;27;46362;-84
2022/07/27 03:47:52;;;;;;;;;3.50;3.25;;;;;19.36;56.77;101265.34;5074306;27;45412;-87
2022/07/27 03:50:18;;;;;;;;;3.25;2.50;;;;;19.35;57.33;101260.88;5093280;27;45277;-84
2022/07/27 03:52:43;;;;;;;;;4.75;4.00;;;;;19.31;57.32;101262.66;5093027;27;45467;-83
2022/07/27 03:55:08;;;;;;;;;5.25;4.00;;;;;19.29;57.15;101261.72;5096601;27;46706;-84
2022/07/27 03:57:34;;;;;;;;;3.00;2.25;;;;;19.37;57.30;101275.13;5096548;27;45451;-85
2022/07/27 03:59:59;;;;;;;;;4.50;4.00;;;;;19.36;57.38;101278.66;5078534;27;45340;-86
2022/07/27 04:02:24;;;;;;;;;3.25;3.25;;;;;19.34;57.37;101281.31;5096900;27;45701;-84
2022/07/27 04:04:50;;;;;;;;;3.50;3.50;;;;;19.43;57.62;101299.16;5096474;27;45368;-84
2022/07/27 04:07:15;;;;;;;;;4.25;4.00;;;;;19.29;57.38;101272.38;5077945;27;45473;-86
2022/07/27 04:09:40;;;;;;;;;2.75;2.50;;;;;19.16;57.73;101259.88;5096566;27;45706;-85
2022/07/27 04:12:06;;;;;;;;;4.25;4.00;;;;;19.20;57.56;101271.41;5096357;27;45476;-83
2022/07/27 04:14:31;;;;;;;;;3.25;3.00;;;;;19.36;57.85;101294.66;5096535;27;45454;-85
2022/07/27 04:16:57;;;;;;;;;6.00;4.25;;;;;19.32;57.26;101288.41;5096326;27;45496;-84
2022/07/27 04:19:22;;;;;;;;;2.75;2.75;;;;;19.31;57.76;101296.41;5096185;27;45379;-85
2022/07/27 04:21:47;;;;;;;;;4.75;4.00;;;;;19.16;57.83;101269.59;5096713;27;45785;-86
2022/07/27 04:24:13;;;;;;;;;3.75;3.75;;;;;19.18;57.69;101270.53;5096315;27;46183;-86
2022/07/27 04:26:39;;;;;;;;;3.00;3.00;;;;;18.92;57.71;101233.91;5096627;27;45608;-85
2022/07/27 04:29:04;;;;;;;;;4.00;4.00;;;;;18.92;57.68;101238.34;5096262;27;45486;-84
2022/07/27 04:31:30;;;;;;;;;3.75;3.00;;;;;19.00;57.80;101250.84;5077750;27;45610;-84
2022/07/27 04:33:56;;;;;;;;;6.75;4.75;;;;;19.14;57.67;101282.03;5096315;27;46015;-86
2022/07/27 04:36:21;;;;;;;;;3.25;3.00;;;;;19.12;57.78;101279.38;5077524;27;45529;-85
2022/07/27 04:38:46;;;;;;;;;3.00;3.00;;;;;19.04;57.70;101263.31;5096548;27;45262;-86
2022/07/27 04:41:12;;;;;;;;;5.00;4.00;;;;;19.09;57.65;101276.66;5096476;27;45381;-86
2022/07/27 04:43:37;;;;;;;;;4.25;3.50;;;;;19.00;57.87;101268.59;5095964;27;46262;-84
2022/07/27 04:46:04;;;;;;;;;3.25;3.25;;;;;19.02;57.54;101272.19;5095698;27;45436;-84
2022/07/27 04:48:32;;;;;;;;;5.00;3.75;;;;;19.01;57.51;101265.97;5095844;27;45256;-86
2022/07/27 04:50:58;;;;;;;;;6.00;5.25;;;;;19.01;57.75;101263.31;5096342;27;45346;-87
2022/07/27 04:53:23;;;;;;;;;6.00;3.75;;;;;19.00;57.74;101264.16;5096111;27;46479;-84
2022/07/27 04:55:48;;;;;;;;;3.75;3.75;;;;;19.05;57.08;101278.41;5095972;27;45420;-84
2022/07/27 04:58:14;;;;;;;;;4.25;4.25;;;;;18.99;57.37;101259.72;5077628;27;45460;-87
2022/07/27 05:00:45;;;;;;;;;4.25;4.25;;;;;19.02;57.66;101273.06;5095796;27;45557;-83
2022/07/27 05:03:11;;;;;;;;;4.00;3.75;;;;;19.19;57.65;101296.28;5095322;27;45431;-85
2022/07/27 05:05:36;;;;;;;;;5.00;4.00;;;;;19.17;57.45;101293.63;5095559;27;45674;-83
2022/07/27 05:08:02;;;;;;;;;3.75;2.75;;;;;19.05;56.82;101277.50;5096010;27;45514;-84
2022/07/27 05:10:27;;;;;;;;;5.75;4.50;;;;;18.98;57.40;101268.59;5095770;27;45418;-83
2022/07/27 05:12:53;;;;;;;;;2.00;2.00;;;;;19.18;57.11;101299.84;5095618;27;45779;-84
2022/07/27 05:15:18;;;;;;;;;3.00;3.00;;;;;19.21;57.12;101308.75;5095627;27;45392;-84
2022/07/27 05:17:43;;;;;;;;;6.75;5.00;;;;;19.02;56.93;101274.84;5095345;27;45286;-84
2022/07/27 05:20:10;;;;;;;;;4.00;3.00;;;;;19.12;56.62;101300.69;5077281;27;45553;-86
2022/07/27 05:22:35;;;;;;;;;4.00;3.00;;;;;19.16;56.49;101302.50;5095290;27;46694;-86
2022/07/27 05:25:01;;;;;;;;;3.00;3.00;;;;;19.13;56.85;101306.91;5095349;27;45280;-85
2022/07/27 05:27:26;;;;;;;;;3.00;3.00;;;;;19.05;56.98;101286.41;5095386;27;45356;-84
2022/07/27 05:29:52;;;;;;;;;4.00;4.00;;;;;19.19;56.72;101315.84;5095425;27;45421;-84
2022/07/27 05:32:17;;;;;;;;;3.25;2.50;;;;;19.14;56.74;101306.91;5076299;27;47945;-84
2022/07/27 05:34:44;;;;;;;;;3.25;3.25;;;;;19.08;56.40;101296.22;5095021;27;45499;-83
2022/07/27 05:37:10;;;;;;;;;5.25;5.25;;;;;19.23;56.57;101322.97;5077022;27;45509;-85
2022/07/27 05:39:36;;;;;;;;;5.00;3.00;;;;;19.19;56.46;101314.94;5095492;27;45586;-84
2022/07/27 05:42:03;;;;;;;;;4.75;4.25;;;;;19.11;56.35;101298.88;5094941;27;45366;-84
2022/07/27 05:44:28;;;;;;;;;3.00;3.00;;;;;18.99;56.42;101275.69;5094732;27;45348;-85
2022/07/27 05:46:53;;;;;;;;;3.50;3.25;;;;;19.12;56.20;101300.69;5095277;27;45456;-86
2022/07/27 05:49:19;;;;;;;;;5.00;3.00;;;;;19.09;56.27;101297.97;5094584;27;45489;-83
2022/07/27 05:51:44;;;;;;;;;3.50;3.00;;;;;19.15;56.24;101299.81;5094745;27;46335;-86
2022/07/27 05:54:09;;;;;;;;;4.00;4.00;;;;;19.33;56.12;101326.63;5094834;27;48313;-83
2022/07/27 05:56:35;;;;;;;;;3.25;3.00;;;;;19.17;56.07;101298.94;5094916;27;45890;-86
2022/07/27 05:59:00;;;;;;;;;4.00;4.00;;;;;19.29;55.96;101308.81;5076437;27;45430;-84
2022/07/27 06:01:26;;;;;;;;;4.25;4.00;;;;;19.24;56.08;101303.44;5094938;27;45391;-84
2022/07/27 06:03:51;;;;;;;;;5.00;4.25;;;;;19.23;55.67;101298.09;5094077;27;45307;-84
2022/07/27 06:09:01;;;;;;;;;4.00;3.00;;;;;19.39;55.55;101316.00;5095253;27;45508;-85
2022/07/27 06:11:26;;;;;;;;;4.50;3.00;;;;;19.35;55.58;101306.19;5094747;27;46316;-85
2022/07/27 06:13:51;;;;;;;;;3.00;3.00;;;;;19.42;55.49;101316.03;5094383;27;45282;-84
2022/07/27 06:16:17;;;;;;;;;2.00;2.00;;;;;19.44;55.55;101322.25;5094058;27;45506;-86
2022/07/27 06:18:43;;;;;;;;;2.50;2.00;;;;;19.34;55.42;101307.06;5094527;27;45589;-83
2022/07/27 06:21:08;;;;;;;;;4.00;3.00;;;;;19.39;55.29;101315.09;5094276;27;46640;-85
2022/07/27 06:23:33;;;;;;;;;3.50;3.25;;;;;19.51;55.35;101331.22;5094766;27;45319;-86
2022/07/27 06:25:59;;;;;;;;;3.00;3.00;;;;;19.59;55.10;101348.13;5076093;27;45438;-86
2022/07/27 06:28:24;;;;;;;;;2.75;2.25;;;;;19.52;54.94;101327.66;5094634;27;45370;-83
2022/07/27 06:30:52;;;;;;;;;3.00;3.00;;;;;19.45;55.02;101316.03;5094346;27;45521;-86
2022/07/27 06:33:26;;;;;;;;;5.00;5.00;;;;;19.46;55.11;101317.84;5094148;27;45906;-86
2022/07/27 06:35:51;;;;;;;;;4.50;4.50;;;;;19.34;55.31;101299.97;5076162;27;45441;-84
2022/07/27 06:38:18;;;;;;;;;4.00;3.75;;;;;19.48;55.29;101318.72;5094511;27;45338;-84
2022/07/27 06:40:43;;;;;;;;;5.25;3.00;;;;;19.58;55.16;101333.91;5094025;27;45524;-83
2022/07/27 06:43:08;;;;;;;;;4.75;4.75;;;;;19.54;55.08;101326.75;5094182;27;45539;-86
2022/07/27 06:45:34;;;;;;;;;5.00;4.00;;;;;19.71;55.05;101350.03;5094193;27;45338;-85
2022/07/27 06:48:00;;;;;;;;;5.00;5.00;;;;;19.58;55.10;101323.25;5075725;27;45361;-86
2022/07/27 06:50:25;;;;;;;;;4.25;4.00;;;;;19.64;55.02;101333.09;5076333;27;47962;-86
2022/07/27 06:52:51;;;;;;;;;2.25;2.25;;;;;19.69;55.00;101330.47;5094544;27;45417;-86
2022/07/27 06:55:16;;;;;;;;;4.75;4.75;;;;;19.69;54.99;101330.47;5094464;27;45780;-85
2022/07/27 06:57:42;;;;;;;;;5.25;4.75;;;;;19.68;54.84;101329.56;5094117;27;45487;-83
2022/07/27 07:00:08;;;;;;;;;4.50;4.50;;;;;19.84;54.72;101347.44;5094236;27;45296;-86
2022/07/27 07:02:33;;;;;;;;;4.75;3.50;;;;;19.87;54.55;101356.38;5093948;27;45432;-86
2022/07/27 07:04:59;;;;;;;;;3.25;3.00;;;;;19.88;55.09;101352.81;5094544;27;45544;-86
2022/07/27 07:07:24;;;;;;;;;4.50;4.50;;;;;19.92;54.70;101351.94;5094444;27;45276;-86
2022/07/27 07:09:50;;;;;;;;;5.75;4.25;;;;;19.76;54.85;101313.63;5094224;27;46408;-87
2022/07/27 07:12:17;;;;;;;;;5.75;5.00;;;;;19.88;54.87;101331.47;5094059;27;45592;-87
2022/07/27 07:14:42;;;;;;;;;4.75;4.25;;;;;19.71;54.39;101292.25;5075723;27;45480;-87
2022/07/27 07:17:08;;;;;;;;;6.00;6.00;;;;;20.12;54.81;101358.28;5093849;27;45452;-86
2022/07/27 07:19:33;;;;;;;;;4.50;4.25;;;;;19.98;54.59;101328.84;5093638;27;45710;-86
2022/07/27 07:21:58;;;;;;;;;4.75;4.50;;;;;19.99;54.42;101329.75;5093865;27;45396;-86
2022/07/27 07:24:23;;;;;;;;;5.00;5.00;;;;;20.12;54.42;101347.63;5093966;27;45347;-85
2022/07/27 07:26:49;;;;;;;;;5.00;5.00;;;;;20.17;54.28;101352.97;5093706;27;45334;-83
2022/07/27 07:29:15;;;;;;;;;7.00;6.00;;;;;20.21;54.48;101336.97;5095604;27;45322;-83
2022/07/27 07:31:40;;;;;;;;;5.00;4.75;;;;;20.03;54.77;101305.75;5097169;27;45481;-85
2022/07/27 07:34:05;;;;;;;;;4.75;4.75;;;;;20.13;54.50;101309.34;5097067;27;45367;-85
2022/07/27 07:36:31;;;;;;;;;8.25;8.00;;;;;20.39;54.29;101351.28;5078790;27;45524;-85
2022/07/27 07:38:56;;;;;;;;;6.50;6.50;;;;;20.34;54.18;101332.56;5097201;27;45378;-85
2022/07/27 07:41:22;;;;;;;;;6.50;5.50;;;;;20.40;54.43;101327.28;5097224;27;45432;-85
2022/07/27 07:43:48;;;;;;;;;8.00;7.50;;;;;20.46;54.14;101334.41;5096931;27;45604;-85
2022/07/27 07:46:13;;;;;;;;;5.50;5.50;;;;;20.39;54.40;101320.13;5097017;27;45477;-84
2022/07/27 07:48:38;;;;;;;;;7.25;7.00;;;;;20.44;54.16;101317.47;5096501;27;46505;-85
2022/07/27 07:51:04;;;;;;;;;7.00;7.00;;;;;20.35;54.24;101291.66;5096696;27;45465;-84
2022/07/27 07:53:29;;;;;;;;;7.75;6.75;;;;;20.59;54.24;101320.22;5097011;27;45387;-85
2022/07/27 07:55:55;;;;;;;;;7.00;7.00;;;;;20.69;54.03;101326.47;5096981;27;45241;-86
2022/07/27 07:58:21;;;;;;;;;7.00;6.75;;;;;20.73;53.68;101326.50;5096724;27;45553;-85
2022/07/27 08:00:46;;;;;;;;;8.50;8.00;;;;;20.71;54.00;101320.28;5096930;27;45536;-83
2022/07/27 08:03:13;;;;;;;;;7.00;6.25;;;;;20.67;53.93;101310.47;5096565;27;45373;-84
2022/07/27 08:05:38;;;;;;;;;8.25;8.25;;;;;20.75;53.93;101307.81;5096799;27;45433;-85
2022/07/27 08:08:04;;;;;;;;;7.00;7.00;;;;;20.98;53.80;101331.88;5096482;27;46452;-86
2022/07/27 08:10:30;;;;;;;;;6.00;6.00;;;;;20.92;54.26;101326.53;5096651;27;45668;-85
2022/07/27 08:12:57;;;;;;;;;7.25;7.00;;;;;21.06;53.86;101341.69;5096450;27;45346;-83
2022/07/27 08:15:25;;;;;;;;;6.75;6.75;;;;;20.95;53.63;101316.75;5096527;27;45299;-84
2022/07/27 08:17:50;;;;;;;;;7.75;6.25;;;;;21.12;54.50;101341.69;5077577;27;46374;-83
2022/07/27 08:20:16;;;;;;;;;9.75;7.25;;;;;20.97;53.81;101314.06;5096450;27;45495;-84
2022/07/27 08:22:43;;;;;;;;;7.50;7.50;;;;;21.10;53.45;101322.09;5096609;27;45472;-84
2022/07/27 08:25:09;;;;;;;;;6.75;6.75;;;;;21.08;53.49;101318.56;5096436;27;45371;-85
2022/07/27 08:27:35;;;;;;;;;5.75;5.50;;;;;21.26;53.50;101332.81;5096321;27;45457;-84
2022/07/27 08:30:01;;;;;;;;;7.75;7.25;;;;;21.25;53.35;101320.34;5096396;27;45425;-85
2022/07/27 08:32:27;;;;;;;;;5.25;5.25;;;;;21.29;53.27;101316.78;5077962;27;45354;-83
2022/07/27 08:34:53;;;;;;;;;9.50;8.50;;;;;21.18;53.23;101289.13;5096240;27;45639;-85
2022/07/27 08:37:18;;;;;;;;;11.50;9.50;;;;;21.48;52.51;101328.38;5077706;27;48047;-85
2022/07/27 08:39:44;;;;;;;;;9.00;8.50;;;;;21.40;52.58;101317.69;5096129;27;45657;-86
2022/07/27 08:42:10;;;;;;;;;9.75;8.75;;;;;21.53;52.51;101335.50;5096379;27;45313;-84
2022/07/27 08:44:39;;;;;;;;;10.00;8.25;;;;;21.54;52.52;101334.63;5095951;27;45404;-85
2022/07/27 08:47:05;;;;;;;;;10.00;9.75;;;;;21.57;52.61;101333.69;5095623;27;45424;-85
2022/07/27 08:49:31;;;;;;;;;7.50;7.00;;;;;21.54;52.19;101329.25;5077315;27;45422;-85
2022/07/27 08:51:57;;;;;;;;;9.25;8.50;;;;;21.49;52.19;101306.97;5095945;27;45390;-84
2022/07/27 08:54:24;;;;;;;;;7.00;7.00;;;;;21.70;52.66;101342.63;5095845;27;45451;-84
2022/07/27 08:56:49;;;;;;;;;9.50;8.75;;;;;21.55;52.29;101306.06;5077400;27;47054;-85
2022/07/27 08:59:14;;;;;;;;;10.25;9.50;;;;;21.66;52.36;101314.06;5077685;27;45380;-85
2022/07/27 09:01:40;;;;;;;;;10.00;9.00;;;;;21.85;52.07;101326.53;5096254;27;45367;-85
2022/07/27 09:04:08;;;;;;;;;7.00;6.75;;;;;21.88;51.87;101308.69;5095655;27;45476;-85
2022/07/27 09:06:48;;;;;;;;;8.00;7.25;;;;;22.01;51.31;101295.25;5077467;27;48416;-86
2022/07/27 09:09:19;;;;;;;;;8.25;7.25;;;;;22.34;51.15;101338.00;5096050;27;46051;-85
2022/07/27 09:12:05;;;;;;;;;6.50;6.50;;;;;22.51;51.03;101337.94;5095776;27;45490;-85
2022/07/27 09:14:33;;;;;;;;;8.00;7.50;;;;;22.54;50.83;101329.84;5095620;27;45208;-85
2022/07/27 09:16:59;;;;;;;;;6.00;6.00;;;;;22.53;50.55;101303.97;5095476;27;46470;-83
2022/07/27 09:19:24;;;;;;;;;9.25;9.25;;;;;22.70;49.85;101316.38;5094996;27;45492;-85
2022/07/27 09:21:49;;;;;;;;;7.25;7.00;;;;;22.71;49.65;101327.09;5077114;27;45474;-83
2022/07/27 09:24:15;;;;;;;;;10.00;9.00;;;;;22.71;49.29;101323.50;5095427;27;45419;-84
2022/07/27 09:26:42;;;;;;;;;7.00;7.00;;;;;22.66;49.31;101324.44;5076766;27;47282;-86
2022/07/27 09:29:11;;;;;;;;;7.25;6.75;;;;;22.88;49.62;101343.06;5095230;27;45520;-85
2022/07/27 09:31:40;;;;;;;;;8.00;7.25;;;;;22.99;49.16;101333.19;5076802;27;45494;-83
2022/07/27 09:34:05;;;;;;;;;6.50;5.75;;;;;22.76;49.47;101286.84;5076676;27;45371;-86
2022/07/27 09:36:31;;;;;;;;;9.50;8.75;;;;;22.99;49.20;101319.78;5076834;27;48218;-85
2022/07/27 09:39:01;;;;;;;;;8.00;8.00;;;;;23.09;49.09;101337.56;5095051;27;45373;-85
2022/07/27 09:41:38;;;;;;;;;7.25;7.25;;;;;23.07;48.95;101331.34;5095324;27;45380;-83
2022/07/27 09:44:03;;;;;;;;;7.50;7.50;;;;;23.00;48.99;101310.81;5076359;27;45536;-86
2022/07/27 09:46:34;;;;;;;;;8.50;8.00;;;;;22.98;48.50;101314.44;5095044;27;45813;-85
2022/07/27 09:49:00;;;;;;;;;5.75;5.00;;;;;23.07;48.41;101320.63;5076086;27;45792;-83
2022/07/27 09:51:26;;;;;;;;;9.75;9.00;;;;;23.19;48.22;101322.31;5076061;27;45481;-85
2022/07/27 09:53:52;;;;;;;;;8.25;8.00;;;;;23.33;48.00;101309.66;5076790;27;45476;-85
2022/07/27 09:56:30;;;;;;;;;4.50;4.50;;;;;23.55;47.65;101317.53;5094884;27;45575;-85
2022/07/27 09:59:00;;;;;;;;;8.00;7.00;;;;;23.59;47.62;101306.72;5094744;27;45873;-85
2022/07/27 10:01:33;;;;;;;;;5.75;5.00;;;;;23.73;47.29;101317.34;5076480;27;45341;-84
2022/07/27 10:04:01;;;;;;;;;8.00;6.00;;;;;23.86;47.12;101320.81;5094382;27;45350;-85
2022/07/27 10:06:28;;;;;;;;;6.00;5.75;;;;;23.85;46.69;101298.44;5094354;27;45537;-85
2022/07/27 10:08:55;;;;;;;;;6.50;6.25;;;;;23.94;46.46;101292.09;5094716;27;45491;-84
2022/07/27 10:11:22;;;;;;;;;7.50;7.00;;;;;24.09;46.44;101318.75;5094663;27;45370;-84
2022/07/27 10:13:49;;;;;;;;;6.25;5.00;;;;;23.97;46.05;101286.66;5076313;27;45778;-84
2022/07/27 10:16:18;;;;;;;;;6.00;6.00;;;;;24.19;46.39;101304.31;5094649;27;45478;-86
2022/07/27 10:18:46;;;;;;;;;6.00;5.00;;;;;24.37;45.81;101316.63;5094483;27;45363;-85
2022/07/27 10:21:12;;;;;;;;;4.75;4.75;;;;;24.31;45.18;101279.06;5076342;27;45413;-86
2022/07/27 10:23:37;;;;;;;;;4.75;4.00;;;;;24.52;45.48;101285.97;5094507;27;45462;-85
2022/07/27 10:26:17;;;;;;;;;5.50;5.50;;;;;24.62;44.87;101278.66;5094140;27;45648;-86
2022/07/27 10:28:52;;;;;;;;;6.50;5.75;;;;;24.92;45.06;101314.94;5094325;27;45736;-83
2022/07/27 10:31:22;;;;;;;;;4.25;4.00;;;;;24.86;43.86;101278.28;5095002;27;45349;-86
2022/07/27 10:33:51;;;;;;;;;5.75;5.75;;;;;25.00;43.99;101309.47;5094240;27;45299;-83
2022/07/27 10:36:43;;;;;;;;;6.00;6.00;;;;;24.99;44.02;101300.50;5075816;27;47794;-85
2022/07/27 10:39:09;;;;;;;;;6.75;6.25;;;;;24.90;44.06;101295.28;5076106;27;46225;-84
2022/07/27 10:41:40;;;;;;;;;6.00;5.00;;;;;24.79;43.67;101273.03;5094224;27;45511;-84
2022/07/27 10:44:17;;;;;;;;;3.75;3.75;;;;;24.95;43.55;101296.97;5093953;27;45538;-85
2022/07/27 10:46:42;;;;;;;;;3.75;3.75;;;;;25.02;43.08;101303.13;5093649;27;46136;-84
2022/07/27 10:49:26;;;;;;;;;4.00;3.33;;;;;25.09;43.43;101293.22;5093843;27;45338;-84
2022/07/27 10:51:52;;;;;;;;;5.50;5.50;;;;;25.16;42.61;101295.75;5094118;27;45619;-86
2022/07/27 10:54:25;;;;;;;;;4.00;4.00;;;;;25.24;42.58;101286.69;5075803;27;45468;-85
2022/07/27 10:56:55;;;;;;;;;4.00;3.50;;;;;25.23;42.37;101249.94;5094054;27;45529;-85
2022/07/27 10:59:39;;;;;;;;;5.50;5.00;;;;;25.60;41.92;101285.13;5075516;27;45858;-82
2022/07/27 11:02:06;;;;;;;;;2.00;2.00;;;;;25.43;41.48;101247.75;5094077;27;45435;-84
2022/07/27 11:04:32;;;;;;;;;5.00;5.00;;;;;25.55;41.01;101257.41;5097115;27;45411;-86
2022/07/27 11:07:00;;;;;;;;;3.75;3.75;;;;;25.77;41.46;101277.66;5097508;27;45488;-84
2022/07/27 11:09:41;;;;;;;;;3.00;3.00;;;;;25.84;41.57;101267.63;5097642;27;45382;-85
2022/07/27 11:12:09;;;;;;;;;4.00;4.00;;;;;25.85;40.60;101256.81;5097616;27;45500;-84
2022/07/27 11:14:51;;;;;;;;;5.25;5.25;;;;;25.87;40.38;101260.38;5097639;27;45704;-84
2022/07/27 11:17:20;;;;;;;;;5.00;4.00;;;;;25.86;40.39;101272.09;5079207;27;47157;-84
2022/07/27 11:20:00;;;;;;;;;3.50;3.50;;;;;25.62;41.05;101249.19;5078509;27;45834;-84
2022/07/27 11:22:39;;;;;;;;;3.00;3.00;;;;;25.61;40.32;101255.47;5097546;27;45542;-86
2022/07/27 11:25:06;;;;;;;;;4.50;4.50;;;;;25.59;40.12;101257.31;5097431;27;45408;-86
2022/07/27 11:27:45;;;;;;;;;2.75;2.75;;;;;25.51;39.95;101237.72;5078914;27;47617;-84